Terminal Aerodrome Forecast
Issued by NWS

Home | Current Version | Previous Version | Text Only | Print | Product List | Glossary On
Versions: 1 2 3 4 5 6 7 8 9 10 11 12 13 14 15 16 17 18 19 20 21 22 23 24 25 26 27 28 29 30 31 32 33 34 35 36 37 38 39 40 41 42 43 44 45 46 47 48 49 50
000
FTUS46 KLOX 171133 AAA
TAFSBP
TAF AMD
KSBP 171133Z 1712/1812 VRB03KT P6SM OVC009
     FM171700 VRB02KT P6SM BKN012
     FM171900 23006KT P6SM SCT015
     FM172000 25008KT P6SM SKC
     FM180000 30008KT P6SM SKC
     FM180400 30008KT P6SM OVC012
     FM180800 VRB03KT P6SM OVC008
     FM181100 VRB03KT 5SM BR OVC006=

USA.gov is the U.S. government's official web portal to all federal, state and local government web resources and services.